Tone — LM4474 — position and weather

sailwx.info

Track history (hours):
 
Tides and Currents Weather Stations Pressure Air Temp Water Temp Dewpoint Dewpoint Depression Visibility Wind Speed Wind Dir Waves Ship Positions

Tone

Last reported at 2017-Oct-31 13:31 UTC. Time now 2017-Dec-18 01:35 UTC.
Position N 70°04' E 029°44'.
Warning: this ship's position is 47 days out of date.

Length 8 m.

Type: Fishing. MMSI: 257407700.

Date/timePositionNaut miles runAvg speedWind from/ knotsBaromVisibWave heightAir tempDewpointWater temp
2017-Oct-31 13:31N 70°04' E 029°44'0 0.8
2017-Oct-31 13:30N 70°04' E 029°44'1 2.9
2017-Oct-31 13:00N 70°04' E 029°41'1 0.5
2017-Oct-31 10:18N 70°04' E 029°44'0 0.0
2017-Oct-31 09:57N 70°04' E 029°44'0 0.0
2017-Oct-31 09:21N 70°04' E 029°44'0 0.0
2017-Oct-31 08:57N 70°04' E 029°44'0 0.0
2017-Oct-31 08:27N 70°04' E 029°44'0 0.0
2017-Oct-31 08:00N 70°04' E 029°44'0 0.0
2017-Oct-31 07:30N 70°04' E 029°44'0 0.0
2017-Oct-31 07:00N 70°04' E 029°44'0 0.0
2017-Oct-31 05:39N 70°04' E 029°44'0 0.0
2017-Oct-31 05:27N 70°04' E 029°44'0 0.0
2017-Oct-31 04:51N 70°04' E 029°44'0 0.0
2017-Oct-31 04:03N 70°04' E 029°44'0 0.0
2017-Oct-31 03:57N 70°04' E 029°44'0 0.0
2017-Oct-30 21:45N 70°04' E 029°44'0 0.0
2017-Oct-30 21:30N 70°04' E 029°44'0 0.0
2017-Oct-30 20:51N 70°04' E 029°44'0 0.0
2017-Oct-30 20:27N 70°04' E 029°44'0 0.0
2017-Oct-30 20:00N 70°04' E 029°44'0 0.0
2017-Oct-30 18:45N 70°04' E 029°44'0 0.0
2017-Oct-30 13:12N 70°04' E 029°44'0 0.1
2017-Oct-30 09:50N 70°04' E 029°45'1 1.2
2017-Oct-30 09:22N 70°04' E 029°43'1 2.6
2017-Oct-30 08:57N 70°04' E 029°40'1 2.5
2017-Oct-30 08:29N 70°04' E 029°37'0 0.2
2017-Oct-30 08:00N 70°04' E 029°37'1 2.5
2017-Oct-30 07:30N 70°04' E 029°41'1 2.4
2017-Oct-30 06:57N 70°04' E 029°44'0 0.0
2017-Oct-30 05:39N 70°04' E 029°44'0 0.0
2017-Oct-30 05:30N 70°04' E 029°44'0 0.0
2017-Oct-30 04:42N 70°04' E 029°44'0 0.0
2017-Oct-30 04:30N 70°04' E 029°44'0 0.0
2017-Oct-30 03:57N 70°04' E 029°44'0 0.0
2017-Oct-30 03:30N 70°04' E 029°44'0 0.0
2017-Oct-30 02:57N 70°04' E 029°44'0 0.0
2017-Oct-30 02:30N 70°04' E 029°44'0 0.0
2017-Oct-30 01:51N 70°04' E 029°44'0 0.0
2017-Oct-30 01:30N 70°04' E 029°44'0 0.0
2017-Oct-29 23:36N 70°04' E 029°44'0 0.0
2017-Oct-29 12:56N 70°04' E 029°44'0 0.0
2017-Oct-29 11:23N 70°04' E 029°44'0 0.0
2017-Oct-29 08:47N 70°04' E 029°44'0 0.0
2017-Oct-29 08:17N 70°04' E 029°44'0 0.0
2017-Oct-29 07:53N 70°04' E 029°44'0 0.0
2017-Oct-29 05:38N 70°04' E 029°44'0 0.0
2017-Oct-29 05:20N 70°04' E 029°44'0 0.0
2017-Oct-29 04:59N 70°04' E 029°44'0 0.0
2017-Oct-28 16:02N 70°04' E 029°44'0 0.0
2017-Oct-28 14:59N 70°04' E 029°44'0 0.0
2017-Oct-28 14:11N 70°04' E 029°44'0 0.0
2017-Oct-28 12:11N 70°04' E 029°44'0 0.0
2017-Oct-28 11:23N 70°04' E 029°44'0 0.0
2017-Oct-28 10:17N 70°04' E 029°44'0 0.0
2017-Oct-28 09:59N 70°04' E 029°44'1 1.0
2017-Oct-28 09:26N 70°04' E 029°44'0 0.6
2017-Oct-28 08:58N 70°04' E 029°43'1 0.1
2017-Oct-28 04:43N 70°04' E 029°44'0 0.0
2017-Oct-28 04:10N 70°04' E 029°44'0 0.0
2017-Oct-28 03:43N 70°04' E 029°44'0 0.0
2017-Oct-28 03:28N 70°04' E 029°44'0 0.0
2017-Oct-28 02:55N 70°04' E 029°44'0 0.0
2017-Oct-28 02:28N 70°04' E 029°44'0 0.0
2017-Oct-28 01:58N 70°04' E 029°44'0 0.0
2017-Oct-28 01:22N 70°04' E 029°44'0 0.0
2017-Oct-28 00:55N 70°04' E 029°44'0 0.0
2017-Oct-28 00:28N 70°04' E 029°44'0 0.0
2017-Oct-27 23:34N 70°04' E 029°44'0 0.0
2017-Oct-27 23:28N 70°04' E 029°44'0 0.0
2017-Oct-27 22:46N 70°04' E 029°44'0 0.0
2017-Oct-27 21:40N 70°04' E 029°44'0 0.0
2017-Oct-27 21:22N 70°04' E 029°44'0 0.0
2017-Oct-27 17:16N 70°04' E 029°44'0 0.0
2017-Oct-27 12:37N 70°04' E 029°44'0 0.0
2017-Oct-27 12:13N 70°04' E 029°44'0 0.0
2017-Oct-27 11:58N 70°04' E 029°44'0 0.0
2017-Oct-27 10:25N 70°04' E 029°44'0 0.0
2017-Oct-27 09:46N 70°04' E 029°44'0 0.0
2017-Oct-27 09:16N 70°04' E 029°44'0 0.0
2017-Oct-27 08:10N 70°04' E 029°44'0 0.0
2017-Oct-27 07:31N 70°04' E 029°44'0 0.0
2017-Oct-27 07:22N 70°04' E 029°44'0 0.0
2017-Oct-27 05:28N 70°04' E 029°44'0 0.0
2017-Oct-27 04:58N 70°04' E 029°44'0 0.0
2017-Oct-27 04:28N 70°04' E 029°44'0 0.0
2017-Oct-27 03:58N 70°04' E 029°44'0 0.0
2017-Oct-27 03:28N 70°04' E 029°44'0 0.0
2017-Oct-27 02:58N 70°04' E 029°44'0 0.0
2017-Oct-27 02:28N 70°04' E 029°44'0 0.0
2017-Oct-27 01:58N 70°04' E 029°44'0 0.0
2017-Oct-27 01:28N 70°04' E 029°44'0 0.0
2017-Oct-27 00:58N 70°04' E 029°44'0 0.0
2017-Oct-27 00:28N 70°04' E 029°44'0 0.0
2017-Oct-26 23:55N 70°04' E 029°44'0 0.0
2017-Oct-26 23:28N 70°04' E 029°44'0 0.0
2017-Oct-26 22:55N 70°04' E 029°44'0 0.0
2017-Oct-26 22:25N 70°04' E 029°44'0 0.0
2017-Oct-26 21:58N 70°04' E 029°44'0 0.0
2017-Oct-26 21:19N 70°04' E 029°44'0 0.0
2017-Oct-26 19:58N 70°04' E 029°44'0 0.0
2017-Oct-26 18:34N 70°04' E 029°44'0 0.0
2017-Oct-26 18:28N 70°04' E 029°44'0 0.0
2017-Oct-26 17:58N 70°04' E 029°44'0 0.0
2017-Oct-26 17:28N 70°04' E 029°44'0 0.0
2017-Oct-26 16:58N 70°04' E 029°44'0 0.0
2017-Oct-26 16:28N 70°04' E 029°44'0 0.0
2017-Oct-26 15:46N 70°04' E 029°44'0 0.0
2017-Oct-26 15:28N 70°04' E 029°44'0 0.0
2017-Oct-26 14:58N 70°04' E 029°44'0 0.0
2017-Oct-26 14:28N 70°04' E 029°44'0 0.0
2017-Oct-26 13:58N 70°04' E 029°44'0 0.0
2017-Oct-26 13:28N 70°04' E 029°44'0 0.0
2017-Oct-26 12:58N 70°04' E 029°44'0 0.0
2017-Oct-26 12:28N 70°04' E 029°44'0 0.0
2017-Oct-26 11:58N 70°04' E 029°44'0 0.0
2017-Oct-26 10:16N 70°04' E 029°44'0 0.0
2017-Oct-26 09:58N 70°04' E 029°44'0 0.0
2017-Oct-26 09:22N 70°04' E 029°44'0 0.0
2017-Oct-26 08:58N 70°04' E 029°44'0 0.0
2017-Oct-26 08:10N 70°04' E 029°44'0 0.0
2017-Oct-26 07:52N 70°04' E 029°44'0 0.0
2017-Oct-26 07:25N 70°04' E 029°44'0 0.0
2017-Oct-26 05:52N 70°04' E 029°44'0 0.0
2017-Oct-26 05:22N 70°04' E 029°44'0 0.0
2017-Oct-26 04:58N 70°04' E 029°44'0 0.0
2017-Oct-26 04:28N 70°04' E 029°44'0 0.0
2017-Oct-26 03:58N 70°04' E 029°44'0 0.0
2017-Oct-26 03:28N 70°04' E 029°44'0 0.0
2017-Oct-26 02:58N 70°04' E 029°44'0 0.0
2017-Oct-26 02:28N 70°04' E 029°44'0 0.0
2017-Oct-26 01:58N 70°04' E 029°44'0 0.0
2017-Oct-26 01:28N 70°04' E 029°44'0 0.0
2017-Oct-26 00:55N 70°04' E 029°44'0 0.0
2017-Oct-26 00:28N 70°04' E 029°44'0 0.0
2017-Oct-25 23:58N 70°04' E 029°44'0 0.0
2017-Oct-25 23:28N 70°04' E 029°44'0 0.0
2017-Oct-25 22:58N 70°04' E 029°44'0 0.0
2017-Oct-25 22:22N 70°04' E 029°44'0 0.0
2017-Oct-25 21:58N 70°04' E 029°44'0 0.0
2017-Oct-25 21:28N 70°04' E 029°44'0 0.0
2017-Oct-25 16:31N 70°04' E 029°44'0 0.0
2017-Oct-25 16:28N 70°04' E 029°44'0 0.0
2017-Oct-25 15:58N 70°04' E 029°44'0 0.0
2017-Oct-25 15:28N 70°04' E 029°44'0 0.0
2017-Oct-25 14:58N 70°04' E 029°44'0 0.0
2017-Oct-25 14:28N 70°04' E 029°44'0 0.0
2017-Oct-25 13:58N 70°04' E 029°44'0 0.0
2017-Oct-25 13:28N 70°04' E 029°44'0 0.0
2017-Oct-25 12:55N 70°04' E 029°44'0 0.0
2017-Oct-25 12:28N 70°04' E 029°44'0 0.0
2017-Oct-25 11:52N 70°04' E 029°44'0 0.0
2017-Oct-25 11:25N 70°04' E 029°44'0 0.0
2017-Oct-25 10:58N 70°04' E 029°44'0 0.0
2017-Oct-25 10:28N 70°04' E 029°44'0 0.0
2017-Oct-25 09:58N 70°04' E 029°44'0 0.0
2017-Oct-25 09:22N 70°04' E 029°44'0 0.0
2017-Oct-25 06:16N 70°04' E 029°44'0 0.0
2017-Oct-25 05:37N 70°04' E 029°44'0 0.0
2017-Oct-25 05:22N 70°04' E 029°44'0 0.0
2017-Oct-25 04:58N 70°04' E 029°44'0 0.0
2017-Oct-25 04:28N 70°04' E 029°44'0 0.0
2017-Oct-25 03:58N 70°04' E 029°44'0 0.0
2017-Oct-25 03:28N 70°04' E 029°44'0 0.0
2017-Oct-25 02:52N 70°04' E 029°44'0 0.0
2017-Oct-25 02:28N 70°04' E 029°44'0 0.0
2017-Oct-25 01:58N 70°04' E 029°44'0 0.0
2017-Oct-25 01:28N 70°04' E 029°44'0 0.0
2017-Oct-25 00:58N 70°04' E 029°44'0 0.0
2017-Oct-25 00:28N 70°04' E 029°44'0 0.0
2017-Oct-24 23:58N 70°04' E 029°44'0 0.0
2017-Oct-24 23:28N 70°04' E 029°44'0 0.0
2017-Oct-24 22:58N 70°04' E 029°44'0 0.0
2017-Oct-24 22:28N 70°04' E 029°44'0 0.0
2017-Oct-24 21:58N 70°04' E 029°44'0 0.0
2017-Oct-24 21:28N 70°04' E 029°44'0 0.0
2017-Oct-24 20:58N 70°04' E 029°44'0 0.0
2017-Oct-24 20:22N 70°04' E 029°44'0 0.0
2017-Oct-24 19:58N 70°04' E 029°44'0 0.0
2017-Oct-24 19:28N 70°04' E 029°44'0 0.0
2017-Oct-24 18:52N 70°04' E 029°44'0 0.0
2017-Oct-24 18:22N 70°04' E 029°44'0 0.0
2017-Oct-24 17:43N 70°04' E 029°44'0 0.0
2017-Oct-24 17:28N 70°04' E 029°44'0 0.0
2017-Oct-24 16:58N 70°04' E 029°44'0 0.0
2017-Oct-24 16:28N 70°04' E 029°44'0 0.0
2017-Oct-24 15:58N 70°04' E 029°44'0 0.0
2017-Oct-24 15:04N 70°04' E 029°44'0 0.0
2017-Oct-24 14:58N 70°04' E 029°44'0 0.0
2017-Oct-24 14:28N 70°04' E 029°44'0 0.0
2017-Oct-24 13:58N 70°04' E 029°44'0 0.0
2017-Oct-24 13:25N 70°04' E 029°44'0 0.0
2017-Oct-24 12:58N 70°04' E 029°44'0 0.0
2017-Oct-24 12:28N 70°04' E 029°44'0 0.0
2017-Oct-24 11:58N 70°04' E 029°44'0 0.0
2017-Oct-24 11:28N 70°04' E 029°44'0 0.9
2017-Oct-24 10:59N 70°04' E 029°43'2 4.4
2017-Oct-24 10:30N 70°04' E 029°37'0 0.6
2017-Oct-24 09:59N 70°04' E 029°36'0 0.7
2017-Oct-24 09:25N 70°04' E 029°37'0 0.6
2017-Oct-24 08:58N 70°04' E 029°38'0 0.3
2017-Oct-24 08:28N 70°04' E 029°37'2 3.8
2017-Oct-24 08:00N 70°04' E 029°43'1 1.5
2017-Oct-24 07:27N 70°04' E 029°45'0 0.0
2017-Oct-24 07:00N 70°04' E 029°45'0 0.0
2017-Oct-24 03:09N 70°04' E 029°44'0 0.0
2017-Oct-24 02:57N 70°04' E 029°44'0 0.0
2017-Oct-24 02:27N 70°04' E 029°44'0 0.0
2017-Oct-24 01:51N 70°04' E 029°44'0 0.0
2017-Oct-24 01:30N 70°04' E 029°44'0 0.0
2017-Oct-24 00:54N 70°04' E 029°44'0 0.0
2017-Oct-24 00:30N 70°04' E 029°44'0 0.0
2017-Oct-24 00:00N 70°04' E 029°44'0 0.0
2017-Oct-23 23:27N 70°04' E 029°44'0 0.0
2017-Oct-23 23:00N 70°04' E 029°44'0 0.0
2017-Oct-23 22:30N 70°04' E 029°44'0 0.0
2017-Oct-23 16:48N 70°04' E 029°44'0 0.0
2017-Oct-23 16:24N 70°04' E 029°44'0 0.0
2017-Oct-23 16:00N 70°04' E 029°44'0 0.0
2017-Oct-23 15:27N 70°04' E 029°44'0 0.0
2017-Oct-23 14:48N 70°04' E 029°44'0 0.0
2017-Oct-23 11:48N 70°04' E 029°44'0 0.0
2017-Oct-23 11:24N 70°04' E 029°44'0 0.0
2017-Oct-23 10:45N 70°04' E 029°44'0 0.0
2017-Oct-23 10:27N 70°04' E 029°44'0 0.0
2017-Oct-23 05:21N 70°04' E 029°44'0 0.0
2017-Oct-23 04:00N 70°04' E 029°44'0 0.0
2017-Oct-23 03:00N 70°04' E 029°44'0 0.0
2017-Oct-23 02:27N 70°04' E 029°44'0 0.0
2017-Oct-23 01:57N 70°04' E 029°44'0 0.0
2017-Oct-23 01:30N 70°04' E 029°44'0 0.0
2017-Oct-23 00:57N 70°04' E 029°44'0 0.0
2017-Oct-23 00:21N 70°04' E 029°44'0 0.0
2017-Oct-23 00:00N 70°04' E 029°44'0 0.0
2017-Oct-22 23:21N 70°04' E 029°44'0 0.0
2017-Oct-22 22:24N 70°04' E 029°44'0 0.0
2017-Oct-22 22:00N 70°04' E 029°44'0 0.0
2017-Oct-22 21:27N 70°04' E 029°44'0 0.0
2017-Oct-22 21:00N 70°04' E 029°44'0 0.0
2017-Oct-22 20:30N 70°04' E 029°44'0 0.0
2017-Oct-22 18:03N 70°04' E 029°44'0 0.0
2017-Oct-22 17:57N 70°04' E 029°44'0 0.0
2017-Oct-22 17:26N 70°04' E 029°44'0 0.0
2017-Oct-22 16:56N 70°04' E 029°44'0 0.0
2017-Oct-22 16:17N 70°04' E 029°44'0 0.0
2017-Oct-22 15:59N 70°04' E 029°44'0 0.0
2017-Oct-22 14:50N 70°04' E 029°44'0 0.0
2017-Oct-22 14:29N 70°04' E 029°44'0 0.0
2017-Oct-22 13:56N 70°04' E 029°44'0 0.0
2017-Oct-22 13:29N 70°04' E 029°44'0 0.0
2017-Oct-22 12:59N 70°04' E 029°44'0 0.0
2017-Oct-22 11:59N 70°04' E 029°44'0 0.0
2017-Oct-22 11:29N 70°04' E 029°44'0 0.0
2017-Oct-22 10:59N 70°04' E 029°44'0 0.0
2017-Oct-22 10:29N 70°04' E 029°44'0 0.0
2017-Oct-22 09:38N 70°04' E 029°44'0 0.0
2017-Oct-22 09:14N 70°04' E 029°44'0 0.0
2017-Oct-22 08:59N 70°04' E 029°44'0 0.0
2017-Oct-22 08:29N 70°04' E 029°44'0 0.0
2017-Oct-22 07:59N 70°04' E 029°44'0 0.0
2017-Oct-22 07:26N 70°04' E 029°44'0 0.0
2017-Oct-22 06:56N 70°04' E 029°44'0 0.0
2017-Oct-22 05:41N 70°04' E 029°44'0 0.0
2017-Oct-22 05:29N 70°04' E 029°44'0 0.0
2017-Oct-22 04:50N 70°04' E 029°44'0 0.0
2017-Oct-22 04:29N 70°04' E 029°44'0 0.0
2017-Oct-22 03:53N 70°04' E 029°44'0 0.0
2017-Oct-22 03:29N 70°04' E 029°44'0 0.0
2017-Oct-22 02:56N 70°04' E 029°44'0 0.0
2017-Oct-22 02:29N 70°04' E 029°44'0 0.0
2017-Oct-22 00:59N 70°04' E 029°44'0 0.0
2017-Oct-22 00:29N 70°04' E 029°44'0 0.0
2017-Oct-21 23:29N 70°04' E 029°44'0 0.0
2017-Oct-21 22:38N 70°04' E 029°44'0 0.0
2017-Oct-21 22:14N 70°04' E 029°44'0 0.0
2017-Oct-21 21:59N 70°04' E 029°44'0 0.0
2017-Oct-21 21:20N 70°04' E 029°44'0 0.0
2017-Oct-21 14:50N 70°04' E 029°44'0 0.0
2017-Oct-21 13:56N 70°04' E 029°44'  
Track history (hours):
 
Tides and Currents Weather Stations Pressure Air Temp Water Temp Dewpoint Dewpoint Depression Visibility Wind Speed Wind Dir Waves Ship Positions

Tone

Last reported at 2017-Oct-31 13:31 UTC. Time now 2017-Dec-18 01:35 UTC.
Position N 70°04' E 029°44'.
Warning: this ship's position is 47 days out of date.

Length 8 m.

Type: Fishing. MMSI: 257407700.

Date/timePositionNaut miles runAvg speedWind from/ knotsBaromVisibWave heightAir tempDewpointWater temp
2017-Oct-31 13:31N 70°04' E 029°44'0 0.8
2017-Oct-31 13:30N 70°04' E 029°44'1 2.9
2017-Oct-31 13:00N 70°04' E 029°41'1 0.5
2017-Oct-31 10:18N 70°04' E 029°44'0 0.0
2017-Oct-31 09:57N 70°04' E 029°44'0 0.0
2017-Oct-31 09:21N 70°04' E 029°44'0 0.0
2017-Oct-31 08:57N 70°04' E 029°44'0 0.0
2017-Oct-31 08:27N 70°04' E 029°44'0 0.0
2017-Oct-31 08:00N 70°04' E 029°44'0 0.0
2017-Oct-31 07:30N 70°04' E 029°44'0 0.0
2017-Oct-31 07:00N 70°04' E 029°44'0 0.0
2017-Oct-31 05:39N 70°04' E 029°44'0 0.0
2017-Oct-31 05:27N 70°04' E 029°44'0 0.0
2017-Oct-31 04:51N 70°04' E 029°44'0 0.0
2017-Oct-31 04:03N 70°04' E 029°44'0 0.0
2017-Oct-31 03:57N 70°04' E 029°44'0 0.0
2017-Oct-30 21:45N 70°04' E 029°44'0 0.0
2017-Oct-30 21:30N 70°04' E 029°44'0 0.0
2017-Oct-30 20:51N 70°04' E 029°44'0 0.0
2017-Oct-30 20:27N 70°04' E 029°44'0 0.0
2017-Oct-30 20:00N 70°04' E 029°44'0 0.0
2017-Oct-30 18:45N 70°04' E 029°44'0 0.0
2017-Oct-30 13:12N 70°04' E 029°44'0 0.1
2017-Oct-30 09:50N 70°04' E 029°45'1 1.2
2017-Oct-30 09:22N 70°04' E 029°43'1 2.6
2017-Oct-30 08:57N 70°04' E 029°40'1 2.5
2017-Oct-30 08:29N 70°04' E 029°37'0 0.2
2017-Oct-30 08:00N 70°04' E 029°37'1 2.5
2017-Oct-30 07:30N 70°04' E 029°41'1 2.4
2017-Oct-30 06:57N 70°04' E 029°44'0 0.0
2017-Oct-30 05:39N 70°04' E 029°44'0 0.0
2017-Oct-30 05:30N 70°04' E 029°44'0 0.0
2017-Oct-30 04:42N 70°04' E 029°44'0 0.0
2017-Oct-30 04:30N 70°04' E 029°44'0 0.0
2017-Oct-30 03:57N 70°04' E 029°44'0 0.0
2017-Oct-30 03:30N 70°04' E 029°44'0 0.0
2017-Oct-30 02:57N 70°04' E 029°44'0 0.0
2017-Oct-30 02:30N 70°04' E 029°44'0 0.0
2017-Oct-30 01:51N 70°04' E 029°44'0 0.0
2017-Oct-30 01:30N 70°04' E 029°44'0 0.0
2017-Oct-29 23:36N 70°04' E 029°44'0 0.0
2017-Oct-29 12:56N 70°04' E 029°44'0 0.0
2017-Oct-29 11:23N 70°04' E 029°44'0 0.0
2017-Oct-29 08:47N 70°04' E 029°44'0 0.0
2017-Oct-29 08:17N 70°04' E 029°44'0 0.0
2017-Oct-29 07:53N 70°04' E 029°44'0 0.0
2017-Oct-29 05:38N 70°04' E 029°44'0 0.0
2017-Oct-29 05:20N 70°04' E 029°44'0 0.0
2017-Oct-29 04:59N 70°04' E 029°44'0 0.0
2017-Oct-28 16:02N 70°04' E 029°44'0 0.0
2017-Oct-28 14:59N 70°04' E 029°44'0 0.0
2017-Oct-28 14:11N 70°04' E 029°44'0 0.0
2017-Oct-28 12:11N 70°04' E 029°44'0 0.0
2017-Oct-28 11:23N 70°04' E 029°44'0 0.0
2017-Oct-28 10:17N 70°04' E 029°44'0 0.0
2017-Oct-28 09:59N 70°04' E 029°44'1 1.0
2017-Oct-28 09:26N 70°04' E 029°44'0 0.6
2017-Oct-28 08:58N 70°04' E 029°43'1 0.1
2017-Oct-28 04:43N 70°04' E 029°44'0 0.0
2017-Oct-28 04:10N 70°04' E 029°44'0 0.0
2017-Oct-28 03:43N 70°04' E 029°44'0 0.0
2017-Oct-28 03:28N 70°04' E 029°44'0 0.0
2017-Oct-28 02:55N 70°04' E 029°44'0 0.0
2017-Oct-28 02:28N 70°04' E 029°44'0 0.0
2017-Oct-28 01:58N 70°04' E 029°44'0 0.0
2017-Oct-28 01:22N 70°04' E 029°44'0 0.0
2017-Oct-28 00:55N 70°04' E 029°44'0 0.0
2017-Oct-28 00:28N 70°04' E 029°44'0 0.0
2017-Oct-27 23:34N 70°04' E 029°44'0 0.0
2017-Oct-27 23:28N 70°04' E 029°44'0 0.0
2017-Oct-27 22:46N 70°04' E 029°44'0 0.0
2017-Oct-27 21:40N 70°04' E 029°44'0 0.0
2017-Oct-27 21:22N 70°04' E 029°44'0 0.0
2017-Oct-27 17:16N 70°04' E 029°44'0 0.0
2017-Oct-27 12:37N 70°04' E 029°44'0 0.0
2017-Oct-27 12:13N 70°04' E 029°44'0 0.0
2017-Oct-27 11:58N 70°04' E 029°44'0 0.0
2017-Oct-27 10:25N 70°04' E 029°44'0 0.0
2017-Oct-27 09:46N 70°04' E 029°44'0 0.0
2017-Oct-27 09:16N 70°04' E 029°44'0 0.0
2017-Oct-27 08:10N 70°04' E 029°44'0 0.0
2017-Oct-27 07:31N 70°04' E 029°44'0 0.0
2017-Oct-27 07:22N 70°04' E 029°44'0 0.0
2017-Oct-27 05:28N 70°04' E 029°44'0 0.0
2017-Oct-27 04:58N 70°04' E 029°44'0 0.0
2017-Oct-27 04:28N 70°04' E 029°44'0 0.0
2017-Oct-27 03:58N 70°04' E 029°44'0 0.0
2017-Oct-27 03:28N 70°04' E 029°44'0 0.0
2017-Oct-27 02:58N 70°04' E 029°44'0 0.0
2017-Oct-27 02:28N 70°04' E 029°44'0 0.0
2017-Oct-27 01:58N 70°04' E 029°44'0 0.0
2017-Oct-27 01:28N 70°04' E 029°44'0 0.0
2017-Oct-27 00:58N 70°04' E 029°44'0 0.0
2017-Oct-27 00:28N 70°04' E 029°44'0 0.0
2017-Oct-26 23:55N 70°04' E 029°44'0 0.0
2017-Oct-26 23:28N 70°04' E 029°44'0 0.0
2017-Oct-26 22:55N 70°04' E 029°44'0 0.0
2017-Oct-26 22:25N 70°04' E 029°44'0 0.0
2017-Oct-26 21:58N 70°04' E 029°44'0 0.0
2017-Oct-26 21:19N 70°04' E 029°44'0 0.0
2017-Oct-26 19:58N 70°04' E 029°44'0 0.0
2017-Oct-26 18:34N 70°04' E 029°44'0 0.0
2017-Oct-26 18:28N 70°04' E 029°44'0 0.0
2017-Oct-26 17:58N 70°04' E 029°44'0 0.0
2017-Oct-26 17:28N 70°04' E 029°44'0 0.0
2017-Oct-26 16:58N 70°04' E 029°44'0 0.0
2017-Oct-26 16:28N 70°04' E 029°44'0 0.0
2017-Oct-26 15:46N 70°04' E 029°44'0 0.0
2017-Oct-26 15:28N 70°04' E 029°44'0 0.0
2017-Oct-26 14:58N 70°04' E 029°44'0 0.0
2017-Oct-26 14:28N 70°04' E 029°44'0 0.0
2017-Oct-26 13:58N 70°04' E 029°44'0 0.0
2017-Oct-26 13:28N 70°04' E 029°44'0 0.0
2017-Oct-26 12:58N 70°04' E 029°44'0 0.0
2017-Oct-26 12:28N 70°04' E 029°44'0 0.0
2017-Oct-26 11:58N 70°04' E 029°44'0 0.0
2017-Oct-26 10:16N 70°04' E 029°44'0 0.0
2017-Oct-26 09:58N 70°04' E 029°44'0 0.0
2017-Oct-26 09:22N 70°04' E 029°44'0 0.0
2017-Oct-26 08:58N 70°04' E 029°44'0 0.0
2017-Oct-26 08:10N 70°04' E 029°44'0 0.0
2017-Oct-26 07:52N 70°04' E 029°44'0 0.0
2017-Oct-26 07:25N 70°04' E 029°44'0 0.0
2017-Oct-26 05:52N 70°04' E 029°44'0 0.0
2017-Oct-26 05:22N 70°04' E 029°44'0 0.0
2017-Oct-26 04:58N 70°04' E 029°44'0 0.0
2017-Oct-26 04:28N 70°04' E 029°44'0 0.0
2017-Oct-26 03:58N 70°04' E 029°44'0 0.0
2017-Oct-26 03:28N 70°04' E 029°44'0 0.0
2017-Oct-26 02:58N 70°04' E 029°44'0 0.0
2017-Oct-26 02:28N 70°04' E 029°44'0 0.0
2017-Oct-26 01:58N 70°04' E 029°44'0 0.0
2017-Oct-26 01:28N 70°04' E 029°44'0 0.0
2017-Oct-26 00:55N 70°04' E 029°44'0 0.0
2017-Oct-26 00:28N 70°04' E 029°44'0 0.0
2017-Oct-25 23:58N 70°04' E 029°44'0 0.0
2017-Oct-25 23:28N 70°04' E 029°44'0 0.0
2017-Oct-25 22:58N 70°04' E 029°44'0 0.0
2017-Oct-25 22:22N 70°04' E 029°44'0 0.0
2017-Oct-25 21:58N 70°04' E 029°44'0 0.0
2017-Oct-25 21:28N 70°04' E 029°44'0 0.0
2017-Oct-25 16:31N 70°04' E 029°44'0 0.0
2017-Oct-25 16:28N 70°04' E 029°44'0 0.0
2017-Oct-25 15:58N 70°04' E 029°44'0 0.0
2017-Oct-25 15:28N 70°04' E 029°44'0 0.0
2017-Oct-25 14:58N 70°04' E 029°44'0 0.0
2017-Oct-25 14:28N 70°04' E 029°44'0 0.0
2017-Oct-25 13:58N 70°04' E 029°44'0 0.0
2017-Oct-25 13:28N 70°04' E 029°44'0 0.0
2017-Oct-25 12:55N 70°04' E 029°44'0 0.0
2017-Oct-25 12:28N 70°04' E 029°44'0 0.0
2017-Oct-25 11:52N 70°04' E 029°44'0 0.0
2017-Oct-25 11:25N 70°04' E 029°44'0 0.0
2017-Oct-25 10:58N 70°04' E 029°44'0 0.0
2017-Oct-25 10:28N 70°04' E 029°44'0 0.0
2017-Oct-25 09:58N 70°04' E 029°44'0 0.0
2017-Oct-25 09:22N 70°04' E 029°44'0 0.0
2017-Oct-25 06:16N 70°04' E 029°44'0 0.0
2017-Oct-25 05:37N 70°04' E 029°44'0 0.0
2017-Oct-25 05:22N 70°04' E 029°44'0 0.0
2017-Oct-25 04:58N 70°04' E 029°44'0 0.0
2017-Oct-25 04:28N 70°04' E 029°44'0 0.0
2017-Oct-25 03:58N 70°04' E 029°44'0 0.0
2017-Oct-25 03:28N 70°04' E 029°44'0 0.0
2017-Oct-25 02:52N 70°04' E 029°44'0 0.0
2017-Oct-25 02:28N 70°04' E 029°44'0 0.0
2017-Oct-25 01:58N 70°04' E 029°44'0 0.0
2017-Oct-25 01:28N 70°04' E 029°44'0 0.0
2017-Oct-25 00:58N 70°04' E 029°44'0 0.0
2017-Oct-25 00:28N 70°04' E 029°44'0 0.0
2017-Oct-24 23:58N 70°04' E 029°44'0 0.0
2017-Oct-24 23:28N 70°04' E 029°44'0 0.0
2017-Oct-24 22:58N 70°04' E 029°44'0 0.0
2017-Oct-24 22:28N 70°04' E 029°44'0 0.0
2017-Oct-24 21:58N 70°04' E 029°44'0 0.0
2017-Oct-24 21:28N 70°04' E 029°44'0 0.0
2017-Oct-24 20:58N 70°04' E 029°44'0 0.0
2017-Oct-24 20:22N 70°04' E 029°44'0 0.0
2017-Oct-24 19:58N 70°04' E 029°44'0 0.0
2017-Oct-24 19:28N 70°04' E 029°44'0 0.0
2017-Oct-24 18:52N 70°04' E 029°44'0 0.0
2017-Oct-24 18:22N 70°04' E 029°44'0 0.0
2017-Oct-24 17:43N 70°04' E 029°44'0 0.0
2017-Oct-24 17:28N 70°04' E 029°44'0 0.0
2017-Oct-24 16:58N 70°04' E 029°44'0 0.0
2017-Oct-24 16:28N 70°04' E 029°44'0 0.0
2017-Oct-24 15:58N 70°04' E 029°44'0 0.0
2017-Oct-24 15:04N 70°04' E 029°44'0 0.0
2017-Oct-24 14:58N 70°04' E 029°44'0 0.0
2017-Oct-24 14:28N 70°04' E 029°44'0 0.0
2017-Oct-24 13:58N 70°04' E 029°44'0 0.0
2017-Oct-24 13:25N 70°04' E 029°44'0 0.0
2017-Oct-24 12:58N 70°04' E 029°44'0 0.0
2017-Oct-24 12:28N 70°04' E 029°44'0 0.0
2017-Oct-24 11:58N 70°04' E 029°44'0 0.0
2017-Oct-24 11:28N 70°04' E 029°44'0 0.9
2017-Oct-24 10:59N 70°04' E 029°43'2 4.4
2017-Oct-24 10:30N 70°04' E 029°37'0 0.6
2017-Oct-24 09:59N 70°04' E 029°36'0 0.7
2017-Oct-24 09:25N 70°04' E 029°37'0 0.6
2017-Oct-24 08:58N 70°04' E 029°38'0 0.3
2017-Oct-24 08:28N 70°04' E 029°37'2 3.8
2017-Oct-24 08:00N 70°04' E 029°43'1 1.5
2017-Oct-24 07:27N 70°04' E 029°45'0 0.0
2017-Oct-24 07:00N 70°04' E 029°45'0 0.0
2017-Oct-24 03:09N 70°04' E 029°44'0 0.0
2017-Oct-24 02:57N 70°04' E 029°44'0 0.0
2017-Oct-24 02:27N 70°04' E 029°44'0 0.0
2017-Oct-24 01:51N 70°04' E 029°44'0 0.0
2017-Oct-24 01:30N 70°04' E 029°44'0 0.0
2017-Oct-24 00:54N 70°04' E 029°44'0 0.0
2017-Oct-24 00:30N 70°04' E 029°44'0 0.0
2017-Oct-24 00:00N 70°04' E 029°44'0 0.0
2017-Oct-23 23:27N 70°04' E 029°44'0 0.0
2017-Oct-23 23:00N 70°04' E 029°44'0 0.0
2017-Oct-23 22:30N 70°04' E 029°44'0 0.0
2017-Oct-23 16:48N 70°04' E 029°44'0 0.0
2017-Oct-23 16:24N 70°04' E 029°44'0 0.0
2017-Oct-23 16:00N 70°04' E 029°44'0 0.0
2017-Oct-23 15:27N 70°04' E 029°44'0 0.0
2017-Oct-23 14:48N 70°04' E 029°44'0 0.0
2017-Oct-23 11:48N 70°04' E 029°44'0 0.0
2017-Oct-23 11:24N 70°04' E 029°44'0 0.0
2017-Oct-23 10:45N 70°04' E 029°44'0 0.0
2017-Oct-23 10:27N 70°04' E 029°44'0 0.0
2017-Oct-23 05:21N 70°04' E 029°44'0 0.0
2017-Oct-23 04:00N 70°04' E 029°44'0 0.0
2017-Oct-23 03:00N 70°04' E 029°44'0 0.0
2017-Oct-23 02:27N 70°04' E 029°44'0 0.0
2017-Oct-23 01:57N 70°04' E 029°44'0 0.0
2017-Oct-23 01:30N 70°04' E 029°44'0 0.0
2017-Oct-23 00:57N 70°04' E 029°44'0 0.0
2017-Oct-23 00:21N 70°04' E 029°44'0 0.0
2017-Oct-23 00:00N 70°04' E 029°44'0 0.0
2017-Oct-22 23:21N 70°04' E 029°44'0 0.0
2017-Oct-22 22:24N 70°04' E 029°44'0 0.0
2017-Oct-22 22:00N 70°04' E 029°44'0 0.0
2017-Oct-22 21:27N 70°04' E 029°44'0 0.0
2017-Oct-22 21:00N 70°04' E 029°44'0 0.0
2017-Oct-22 20:30N 70°04' E 029°44'0 0.0
2017-Oct-22 18:03N 70°04' E 029°44'0 0.0
2017-Oct-22 17:57N 70°04' E 029°44'0 0.0
2017-Oct-22 17:26N 70°04' E 029°44'0 0.0
2017-Oct-22 16:56N 70°04' E 029°44'0 0.0
2017-Oct-22 16:17N 70°04' E 029°44'0 0.0
2017-Oct-22 15:59N 70°04' E 029°44'0 0.0
2017-Oct-22 14:50N 70°04' E 029°44'0 0.0
2017-Oct-22 14:29N 70°04' E 029°44'0 0.0
2017-Oct-22 13:56N 70°04' E 029°44'0 0.0
2017-Oct-22 13:29N 70°04' E 029°44'0 0.0
2017-Oct-22 12:59N 70°04' E 029°44'0 0.0
2017-Oct-22 11:59N 70°04' E 029°44'0 0.0
2017-Oct-22 11:29N 70°04' E 029°44'0 0.0
2017-Oct-22 10:59N 70°04' E 029°44'0 0.0
2017-Oct-22 10:29N 70°04' E 029°44'0 0.0
2017-Oct-22 09:38N 70°04' E 029°44'0 0.0
2017-Oct-22 09:14N 70°04' E 029°44'0 0.0
2017-Oct-22 08:59N 70°04' E 029°44'0 0.0
2017-Oct-22 08:29N 70°04' E 029°44'0 0.0
2017-Oct-22 07:59N 70°04' E 029°44'0 0.0
2017-Oct-22 07:26N 70°04' E 029°44'0 0.0
2017-Oct-22 06:56N 70°04' E 029°44'0 0.0
2017-Oct-22 05:41N 70°04' E 029°44'0 0.0
2017-Oct-22 05:29N 70°04' E 029°44'0 0.0
2017-Oct-22 04:50N 70°04' E 029°44'0 0.0
2017-Oct-22 04:29N 70°04' E 029°44'0 0.0
2017-Oct-22 03:53N 70°04' E 029°44'0 0.0
2017-Oct-22 03:29N 70°04' E 029°44'0 0.0
2017-Oct-22 02:56N 70°04' E 029°44'0 0.0
2017-Oct-22 02:29N 70°04' E 029°44'0 0.0
2017-Oct-22 00:59N 70°04' E 029°44'0 0.0
2017-Oct-22 00:29N 70°04' E 029°44'0 0.0
2017-Oct-21 23:29N 70°04' E 029°44'0 0.0
2017-Oct-21 22:38N 70°04' E 029°44'0 0.0
2017-Oct-21 22:14N 70°04' E 029°44'0 0.0
2017-Oct-21 21:59N 70°04' E 029°44'0 0.0
2017-Oct-21 21:20N 70°04' E 029°44'0 0.0
2017-Oct-21 14:50N 70°04' E 029°44'0 0.0
2017-Oct-21 13:56N 70°04' E 029°44'  

Dump ship's entire track history